Time;durP1;ratioP1;P1;durP2;ratioP2;P2;SDS_P1;SDS_P2;PMS_P1;PMS_P2;Temp;Humidity;BMP_temperature;BMP_pressure;BME280_temperature;BME280_humidity;BME280_pressure;Samples;Min_cycle;Max_cycle;Signal;HPM_P1;HPM_P2
2023/08/14 00:01:44;;;;;;;7.90;5.20;;;;;;;17.66;64.67;99951.01;107334;1254;73885;-38
2023/08/14 00:04:12;;;;;;;9.00;5.80;;;;;;;17.64;64.68;99952.02;107382;1253;67014;-38
2023/08/14 00:06:39;;;;;;;8.00;5.50;;;;;;;17.61;64.69;99953.04;107419;1253;71461;-38
2023/08/14 00:09:07;;;;;;;6.80;5.20;;;;;;;17.61;64.77;99950.61;107315;1253;61652;-38
2023/08/14 00:11:34;;;;;;;7.40;4.90;;;;;;;17.64;64.85;99952.72;107312;1255;59577;-39
2023/08/14 00:14:03;;;;;;;8.00;4.80;;;;;;;17.63;64.89;99956.55;107396;1254;73884;-39
2023/08/14 00:16:30;;;;;;;6.80;5.00;;;;;;;17.61;64.89;99953.36;107273;1259;66556;-39
2023/08/14 00:18:58;;;;;;;7.40;5.00;;;;;;;17.59;64.94;99948.16;107287;1261;72692;-40
2023/08/14 00:21:25;;;;;;;9.20;5.40;;;;;;;17.57;65.10;99953.39;107297;1255;60436;-39
2023/08/14 00:23:53;;;;;;;9.40;5.70;;;;;;;17.55;65.06;99954.89;107329;1256;60407;-39
2023/08/14 00:26:20;;;;;;;8.00;5.40;;;;;;;17.51;65.17;99953.16;107279;1254;72889;-39
2023/08/14 00:28:48;;;;;;;7.30;5.10;;;;;;;17.46;65.37;99955.04;107325;1254;67571;-39
2023/08/14 00:31:16;;;;;;;10.80;5.00;;;;;;;17.43;65.69;99957.30;107247;1255;72776;-39
2023/08/14 00:33:45;;;;;;;9.00;5.10;;;;;;;17.45;65.75;99957.39;107350;1256;60554;-39
2023/08/14 00:36:13;;;;;;;7.00;5.20;;;;;;;17.49;66.03;99958.26;107389;1255;60329;-39
2023/08/14 00:38:40;;;;;;;9.00;5.10;;;;;;;17.51;66.28;99960.99;107411;1254;73909;-39
2023/08/14 00:41:08;;;;;;;7.20;4.90;;;;;;;17.51;66.29;99960.92;107325;1255;66620;-40
2023/08/14 00:43:36;;;;;;;6.60;5.20;;;;;;;17.49;66.40;99958.02;107397;1256;72753;-40
2023/08/14 00:46:03;;;;;;;9.20;5.70;;;;;;;17.48;66.36;99956.60;107305;1256;60192;-40
2023/08/14 00:48:31;;;;;;;6.50;5.10;;;;;;;17.46;66.49;99960.36;107329;1255;60514;-40
2023/08/14 00:50:59;;;;;;;10.80;5.60;;;;;;;17.44;66.60;99959.10;107424;1256;73533;-40
2023/08/14 00:53:27;;;;;;;7.80;5.30;;;;;;;17.42;66.66;99956.61;107270;1254;66283;-40
2023/08/14 00:55:55;;;;;;;12.80;5.40;;;;;;;17.45;66.48;99958.64;107143;1258;71250;-40
2023/08/14 00:58:23;;;;;;;7.90;5.00;;;;;;;17.49;66.29;99955.73;107328;1255;60273;-40
2023/08/14 01:00:51;;;;;;;7.30;5.20;;;;;;;17.49;66.16;99957.07;107350;1259;60436;-40
2023/08/14 01:03:19;;;;;;;7.90;5.30;;;;;;;17.47;66.07;99956.77;107400;1256;72946;-40
2023/08/14 01:05:47;;;;;;;9.10;5.20;;;;;;;17.46;66.10;99956.22;107355;1256;66429;-38
2023/08/14 01:08:15;;;;;;;8.20;5.30;;;;;;;17.43;65.84;99956.99;107378;1256;72688;-39
2023/08/14 01:10:42;;;;;;;7.70;5.60;;;;;;;17.39;65.85;99957.06;107345;1256;60179;-39
2023/08/14 01:13:13;;;;;;;8.10;5.10;;;;;;;17.35;65.81;99958.79;107407;1254;60493;-39
2023/08/14 01:15:43;;;;;;;7.30;5.60;;;;;;;17.31;65.85;99957.84;107418;1256;73844;-39
2023/08/14 01:18:12;;;;;;;7.60;5.30;;;;;;;17.28;65.81;99957.30;107421;1256;67743;-39
2023/08/14 01:20:40;;;;;;;7.70;4.90;;;;;;;17.30;65.76;99957.84;107349;1253;71771;-39
2023/08/14 01:23:22;;;;;;;8.10;4.70;;;;;;;17.32;66.02;99959.34;107528;1254;60530;-39
2023/08/14 01:25:51;;;;;;;8.00;5.20;;;;;;;17.32;65.99;99958.55;107767;1254;60415;-39
2023/08/14 01:28:18;;;;;;;7.20;5.30;;;;;;;17.30;65.95;99958.63;107716;1254;73875;-39
2023/08/14 01:30:46;;;;;;;7.20;5.30;;;;;;;17.28;65.94;99962.23;107615;1252;67911;-39
2023/08/14 01:33:13;;;;;;;9.70;5.50;;;;;;;17.26;65.84;99958.94;107758;1257;72698;-39
2023/08/14 01:35:42;;;;;;;8.40;5.10;;;;;;;17.23;65.93;99957.28;107692;1254;60345;-39
2023/08/14 01:38:20;;;;;;;7.80;5.20;;;;;;;17.20;65.89;99956.89;107719;1254;60309;-39
2023/08/14 01:41:15;;;;;;;9.20;5.10;;;;;;;17.16;66.14;99959.54;107533;1254;73838;-39
2023/08/14 01:43:46;;;;;;;8.50;5.30;;;;;;;17.19;66.08;99964.17;107716;1254;67932;-39
2023/08/14 01:46:15;;;;;;;9.50;5.50;;;;;;;17.21;66.14;99961.59;107678;1254;72647;-39
2023/08/14 01:48:44;;;;;;;10.90;5.30;;;;;;;17.20;65.96;99968.08;107574;1256;60090;-39
2023/08/14 01:51:11;;;;;;;8.50;5.50;;;;;;;17.17;66.09;99970.75;107509;1258;60313;-39
2023/08/14 01:53:40;;;;;;;7.60;5.10;;;;;;;17.14;66.27;99975.44;107614;1256;73854;-39
2023/08/14 01:56:07;;;;;;;16.50;5.80;;;;;;;17.10;66.40;99975.73;107685;1254;67590;-39
2023/08/14 01:58:35;;;;;;;6.40;5.20;;;;;;;17.07;66.49;99975.96;107477;1254;71756;-39
2023/08/14 02:01:02;;;;;;;11.10;5.00;;;;;;;17.04;66.68;99978.31;107641;1254;61793;-39
2023/08/14 02:03:30;;;;;;;6.80;4.40;;;;;;;17.05;66.68;99981.52;107638;1254;60367;-39
2023/08/14 02:05:58;;;;;;;10.40;5.10;;;;;;;17.07;66.72;99983.56;107667;1253;73848;-39
2023/08/14 02:08:27;;;;;;;8.40;5.20;;;;;;;17.06;66.85;99983.94;107474;1254;66514;-39
2023/08/14 02:10:56;;;;;;;8.00;5.50;;;;;;;17.02;67.02;99979.87;107493;1254;72780;-39
2023/08/14 02:13:24;;;;;;;9.60;5.50;;;;;;;17.02;67.21;99985.50;107516;1254;60432;-39
2023/08/14 02:15:51;;;;;;;7.80;5.60;;;;;;;16.99;67.26;99988.31;107703;1254;60335;-39
2023/08/14 02:18:19;;;;;;;8.20;5.50;;;;;;;16.97;67.22;99989.86;107538;1257;73985;-39
2023/08/14 02:20:48;;;;;;;8.00;5.60;;;;;;;16.92;67.26;99987.66;107259;1253;67644;-39
2023/08/14 02:23:15;;;;;;;6.50;5.30;;;;;;;16.93;67.38;99992.83;107257;1256;71396;-39
2023/08/14 02:25:43;;;;;;;8.30;5.50;;;;;;;16.98;67.32;99992.38;107340;1253;60401;-39
2023/08/14 02:28:11;;;;;;;8.50;5.50;;;;;;;16.97;67.38;99990.34;107286;1253;60438;-40
2023/08/14 02:30:41;;;;;;;8.40;5.80;;;;;;;16.95;67.46;99993.61;107487;1253;73920;-39
2023/08/14 02:33:09;;;;;;;11.60;5.70;;;;;;;16.92;67.56;99995.17;107364;1258;67578;-39
2023/08/14 02:35:36;;;;;;;8.60;6.20;;;;;;;16.89;67.61;99991.95;107352;1256;71460;-39
2023/08/14 02:38:05;;;;;;;7.60;5.70;;;;;;;16.87;67.67;99992.50;107315;1253;60472;-39
2023/08/14 02:40:33;;;;;;;10.70;5.70;;;;;;;16.84;67.68;99993.11;107403;1254;60872;-39
2023/08/14 02:43:02;;;;;;;11.70;5.70;;;;;;;16.87;67.65;99992.34;107308;1256;73849;-39
2023/08/14 02:45:29;;;;;;;8.20;6.40;;;;;;;16.89;67.53;99992.19;107337;1255;65457;-39
2023/08/14 02:47:57;;;;;;;12.10;6.30;;;;;;;16.89;67.65;99993.67;107354;1253;72711;-39
2023/08/14 02:50:25;;;;;;;11.60;6.30;;;;;;;16.89;67.63;99997.27;107320;1254;60480;-39
2023/08/14 02:52:52;;;;;;;8.60;6.20;;;;;;;16.87;67.63;99997.27;107408;1253;60423;-39
2023/08/14 02:55:20;;;;;;;11.10;6.20;;;;;;;16.85;67.58;99998.35;107446;1254;73879;-39
2023/08/14 02:57:48;;;;;;;9.40;5.90;;;;;;;16.81;67.69;100001.95;107384;1253;66323;-39
2023/08/14 03:00:15;;;;;;;7.80;5.50;;;;;;;16.75;67.68;100003.23;107244;1256;71928;-39
2023/08/14 03:02:43;;;;;;;8.10;5.00;;;;;;;16.76;67.64;100006.85;107423;1256;61134;-39
2023/08/14 03:05:12;;;;;;;7.40;4.80;;;;;;;16.80;67.47;100007.89;107279;1253;60435;-39
2023/08/14 03:07:40;;;;;;;9.20;6.00;;;;;;;16.80;67.44;100011.16;107242;1253;73845;-39
2023/08/14 03:10:08;;;;;;;6.50;5.60;;;;;;;16.78;67.55;100010.23;107572;1254;66311;-39
2023/08/14 03:12:36;;;;;;;11.90;5.70;;;;;;;16.76;67.62;100012.88;107179;1254;72694;-39
2023/08/14 03:15:07;;;;;;;9.60;5.80;;;;;;;16.75;67.80;100014.05;107456;1253;61019;-39
2023/08/14 03:17:35;;;;;;;7.70;5.90;;;;;;;16.74;67.98;100009.43;107276;1256;60426;-39
2023/08/14 03:20:04;;;;;;;9.00;5.70;;;;;;;16.73;68.03;100011.77;107264;1260;74690;-39
2023/08/14 03:22:32;;;;;;;9.90;5.70;;;;;;;16.78;68.21;100012.40;107313;1256;67569;-39
2023/08/14 03:25:00;;;;;;;7.70;5.90;;;;;;;16.84;68.41;100011.10;107260;1260;71388;-39
2023/08/14 03:27:28;;;;;;;9.80;6.40;;;;;;;16.86;68.50;100011.90;107268;1260;60469;-39
2023/08/14 03:29:55;;;;;;;10.40;6.50;;;;;;;16.87;68.58;100011.52;107242;1254;60544;-39
2023/08/14 03:32:23;;;;;;;7.30;5.90;;;;;;;16.88;68.71;100010.42;107289;1254;72563;-39
2023/08/14 03:34:51;;;;;;;9.30;5.90;;;;;;;16.89;68.79;100013.23;107299;1254;66756;-39
2023/08/14 03:37:19;;;;;;;9.00;5.90;;;;;;;16.90;68.94;100018.79;107124;1256;72666;-39
2023/08/14 03:39:47;;;;;;;8.70;5.80;;;;;;;16.95;68.89;100016.00;107208;1254;60701;-39
2023/08/14 03:42:14;;;;;;;10.30;6.00;;;;;;;17.03;68.68;100017.84;107301;1254;60480;-39
2023/08/14 03:44:42;;;;;;;7.50;5.90;;;;;;;17.08;68.60;100018.86;107252;1254;73849;-39
2023/08/14 03:47:10;;;;;;;7.20;5.80;;;;;;;17.10;68.70;100019.80;107297;1256;67577;-39
2023/08/14 03:49:37;;;;;;;9.80;6.70;;;;;;;17.15;68.69;100022.88;107168;1257;71461;-39
2023/08/14 03:52:05;;;;;;;8.30;6.30;;;;;;;17.19;68.67;100026.26;107286;1254;60372;-39
2023/08/14 03:54:33;;;;;;;9.80;6.60;;;;;;;17.22;68.72;100026.18;107293;1260;59667;-39
2023/08/14 03:57:00;;;;;;;9.30;6.20;;;;;;;17.24;68.68;100029.80;107261;1256;72975;-39
2023/08/14 03:59:29;;;;;;;8.70;5.20;;;;;;;17.30;68.36;100031.13;107278;1260;66450;-39
2023/08/14 04:01:57;;;;;;;8.50;6.10;;;;;;;17.33;68.04;100034.52;107272;1256;72617;-39
2023/08/14 04:04:25;;;;;;;9.60;6.30;;;;;;;17.30;68.08;100032.86;107288;1256;60824;-39
2023/08/14 04:06:53;;;;;;;9.30;5.80;;;;;;;17.28;68.24;100028.16;107309;1259;60333;-39
2023/08/14 04:09:20;;;;;;;10.00;6.50;;;;;;;17.28;68.25;100032.30;107320;1254;73825;-39
2023/08/14 04:11:48;;;;;;;8.80;6.20;;;;;;;17.27;68.35;100033.56;107245;1254;66289;-39
2023/08/14 04:14:16;;;;;;;8.20;6.30;;;;;;;17.26;68.41;100033.09;107257;1256;71551;-39
2023/08/14 04:16:44;;;;;;;7.40;5.40;;;;;;;17.30;68.38;100030.90;107273;1258;61737;-39
2023/08/14 04:19:14;;;;;;;6.90;5.60;;;;;;;17.37;68.35;100035.69;107410;1253;60320;-39
2023/08/14 04:21:42;;;;;;;7.20;6.40;;;;;;;17.42;68.39;100036.02;107216;1254;73891;-40
2023/08/14 04:24:10;;;;;;;8.70;6.30;;;;;;;17.46;68.55;100035.63;107376;1258;67629;-39
2023/08/14 04:26:38;;;;;;;9.30;6.70;;;;;;;17.50;68.45;100033.91;107345;1255;73158;-39
2023/08/14 04:29:07;;;;;;;8.50;6.80;;;;;;;17.54;68.47;100036.11;107379;1258;60419;-39
2023/08/14 04:31:40;;;;;;;9.70;6.30;;;;;;;17.58;68.44;100036.36;107506;1253;60429;-40
2023/08/14 04:34:09;;;;;;;8.10;6.40;;;;;;;17.67;68.30;100032.94;107358;1254;72563;-39
2023/08/14 04:36:38;;;;;;;7.50;6.30;;;;;;;17.80;68.24;100038.60;107372;1258;66620;-39
2023/08/14 04:39:09;;;;;;;9.20;6.40;;;;;;;17.90;68.06;100040.09;107329;1253;71859;-39
2023/08/14 04:41:38;;;;;;;7.70;6.60;;;;;;;17.96;68.14;100043.08;107368;1254;60380;-40
2023/08/14 04:47:02;;;;;;;8.30;6.90;;;;;;;18.11;68.74;100043.99;104060;1291;600384;-38
2023/08/14 04:49:31;;;;;;;12.60;7.30;;;;;;;18.21;68.84;100050.34;106610;1266;59581;-38
2023/08/14 04:51:59;;;;;;;12.20;7.50;;;;;;;18.35;69.15;100053.30;106584;1266;60075;-38
2023/08/14 04:54:27;;;;;;;9.40;7.30;;;;;;;18.45;69.31;100055.09;106556;1267;72258;-38
2023/08/14 04:56:55;;;;;;;10.70;7.90;;;;;;;18.52;69.34;100050.15;106645;1266;66773;-38
2023/08/14 04:59:24;;;;;;;11.10;8.60;;;;;;;18.60;69.19;100053.98;106485;1267;71433;-38
2023/08/14 05:01:52;;;;;;;9.90;7.70;;;;;;;18.69;69.18;100052.55;106618;1267;205250;-38
2023/08/14 05:04:23;;;;;;;11.40;7.80;;;;;;;18.83;69.17;100055.48;106734;1267;59238;-38
2023/08/14 05:06:51;;;;;;;10.00;7.50;;;;;;;18.97;69.03;100055.36;106706;1265;72279;-38
2023/08/14 05:09:19;;;;;;;11.60;6.80;;;;;;;19.10;68.39;100057.34;106690;1264;65481;-39
2023/08/14 05:11:57;;;;;;;8.20;6.40;;;;;;;19.19;67.68;100053.61;106726;1264;71397;-38
2023/08/14 05:14:25;;;;;;;9.30;6.60;;;;;;;19.29;67.32;100049.78;106706;1265;59588;-39
2023/08/14 05:16:53;;;;;;;7.90;6.80;;;;;;;19.38;67.09;100046.98;106741;1269;59212;-41
2023/08/14 05:19:21;;;;;;;9.10;6.30;;;;;;;19.47;66.95;100050.64;107194;1257;71841;-41
2023/08/14 05:21:48;;;;;;;9.20;5.80;;;;;;;19.62;66.70;100053.86;106968;1257;66831;-41
2023/08/14 05:24:16;;;;;;;9.20;6.00;;;;;;;19.78;66.47;100048.87;107154;1257;72702;-39
2023/08/14 05:26:44;;;;;;;8.90;6.70;;;;;;;19.89;65.81;100049.56;107105;1261;59715;-40
2023/08/14 05:29:11;;;;;;;9.50;6.30;;;;;;;20.00;65.57;100053.10;107134;1257;59502;-40
2023/08/14 05:31:39;;;;;;;10.10;6.30;;;;;;;20.12;65.34;100053.15;107179;1258;72189;-40
2023/08/14 05:34:07;;;;;;;8.70;6.50;;;;;;;20.23;64.88;100049.98;107228;1257;67827;-40
2023/08/14 05:36:34;;;;;;;7.80;6.60;;;;;;;20.34;64.68;100052.19;107202;1258;72721;-40
2023/08/14 05:39:03;;;;;;;8.00;6.50;;;;;;;20.45;64.33;100053.59;107248;1257;60035;-40
2023/08/14 05:41:30;;;;;;;13.00;7.00;;;;;;;20.55;64.48;100053.79;107283;1262;60088;-40
2023/08/14 05:43:58;;;;;;;8.40;7.00;;;;;;;20.70;63.94;100056.38;107096;1257;73062;-40
2023/08/14 05:46:26;;;;;;;9.60;6.60;;;;;;;20.86;63.38;100060.84;107159;1257;66891;-40
2023/08/14 05:48:53;;;;;;;7.50;6.20;;;;;;;20.99;63.39;100059.34;107205;1257;72685;-40
2023/08/14 05:51:21;;;;;;;9.00;6.20;;;;;;;21.12;63.01;100061.23;107195;1257;59682;-40
2023/08/14 05:53:48;;;;;;;6.00;5.10;;;;;;;21.24;62.41;100062.13;107199;1262;60040;-40
2023/08/14 05:56:16;;;;;;;7.20;4.70;;;;;;;21.36;60.33;100063.94;107193;1257;73051;-40
2023/08/14 05:58:43;;;;;;;6.40;4.50;;;;;;;21.48;60.11;100065.10;107111;1262;66627;-40
2023/08/14 06:01:12;;;;;;;4.90;4.40;;;;;;;21.59;59.57;100065.88;107201;1260;72692;-40
2023/08/14 06:03:40;;;;;;;7.90;4.50;;;;;;;21.70;58.33;100065.65;107238;1262;60143;-40
2023/08/14 06:06:12;;;;;;;5.60;4.20;;;;;;;21.81;57.55;100068.40;107273;1257;60046;-40
2023/08/14 06:08:39;;;;;;;5.40;4.30;;;;;;;21.91;57.33;100068.41;107231;1257;73508;-40
2023/08/14 06:11:07;;;;;;;5.00;4.10;;;;;;;22.01;57.51;100075.59;107205;1257;67167;-40
2023/08/14 06:13:34;;;;;;;4.30;3.80;;;;;;;22.12;57.23;100074.48;107296;1263;72708;-40
2023/08/14 06:16:02;;;;;;;6.40;3.90;;;;;;;22.22;56.67;100073.67;107203;1261;59740;-40
2023/08/14 06:18:30;;;;;;;5.50;3.50;;;;;;;22.33;55.80;100077.50;107308;1257;60043;-40
2023/08/14 06:20:57;;;;;;;5.60;3.50;;;;;;;22.44;54.78;100075.34;107183;1258;73086;-40
2023/08/14 06:23:25;;;;;;;5.70;3.70;;;;;;;22.54;53.84;100076.10;107134;1257;66920;-40
2023/08/14 06:25:53;;;;;;;6.30;3.70;;;;;;;22.66;53.82;100076.66;107217;1262;73372;-41
2023/08/14 06:28:22;;;;;;;4.90;3.50;;;;;;;22.73;53.93;100073.39;106834;1258;60339;-41
2023/08/14 06:30:50;;;;;;;4.50;3.10;;;;;;;22.85;53.82;100074.83;107282;1258;60017;-41
2023/08/14 06:33:17;;;;;;;5.90;3.30;;;;;;;22.95;52.12;100077.16;107214;1257;73042;-41
2023/08/14 06:35:45;;;;;;;6.80;3.60;;;;;;;23.04;51.48;100077.22;107177;1260;66308;-41
2023/08/14 06:38:12;;;;;;;5.30;3.20;;;;;;;23.13;52.09;100079.31;107150;1257;71381;-41
2023/08/14 06:40:40;;;;;;;4.80;3.30;;;;;;;23.22;51.88;100080.85;107192;1258;59627;-41
2023/08/14 06:43:08;;;;;;;3.10;2.80;;;;;;;23.33;51.06;100086.07;107265;1257;59331;-41
2023/08/14 06:45:36;;;;;;;5.00;3.50;;;;;;;23.44;51.17;100086.73;107143;1263;73475;-41
2023/08/14 06:48:04;;;;;;;5.10;3.20;;;;;;;23.53;52.08;100089.94;107047;1258;67601;-40
2023/08/14 06:50:33;;;;;;;5.90;3.40;;;;;;;23.62;50.73;100090.59;107286;1257;74940;-38
2023/08/14 06:53:00;;;;;;;4.80;2.90;;;;;;;23.72;50.91;100093.69;107445;1257;60061;-39
2023/08/14 06:55:28;;;;;;;6.70;3.20;;;;;;;23.83;50.25;100092.91;107388;1254;59567;-39
2023/08/14 06:57:55;;;;;;;7.50;3.40;;;;;;;23.94;50.44;100096.52;107430;1254;71695;-39
2023/08/14 07:00:23;;;;;;;5.30;3.20;;;;;;;24.04;49.74;100094.13;107442;1254;67560;-39
2023/08/14 07:02:51;;;;;;;4.60;3.00;;;;;;;24.14;49.54;100089.45;107489;1255;71423;-40
2023/08/14 07:05:19;;;;;;;9.90;3.00;;;;;;;24.22;49.24;100093.08;107584;1259;60030;-40
2023/08/14 07:07:47;;;;;;;5.50;2.60;;;;;;;24.31;48.72;100087.55;107599;1252;59705;-40
2023/08/14 07:10:14;;;;;;;6.70;3.00;;;;;;;24.41;48.77;100091.65;107498;1257;73051;-40
2023/08/14 07:12:46;;;;;;;4.80;3.10;;;;;;;24.50;48.97;100086.98;107494;1257;68615;-40
2023/08/14 07:15:13;;;;;;;4.80;2.70;;;;;;;24.61;49.14;100084.86;107518;1259;71388;-40
2023/08/14 07:17:42;;;;;;;3.60;2.40;;;;;;;24.72;48.10;100087.70;107547;1254;60114;-40
2023/08/14 07:20:11;;;;;;;4.50;2.60;;;;;;;24.81;47.03;100088.36;107574;1257;60010;-40
2023/08/14 07:22:38;;;;;;;5.10;2.90;;;;;;;24.89;46.36;100089.42;107486;1254;73065;-41
2023/08/14 07:25:07;;;;;;;5.70;2.80;;;;;;;24.97;46.87;100091.02;107492;1257;67612;-41
2023/08/14 07:27:34;;;;;;;6.30;2.80;;;;;;;25.05;45.99;100093.89;107605;1254;72719;-41
2023/08/14 07:30:05;;;;;;;6.80;3.00;;;;;;;25.13;45.82;100092.79;107606;1257;60130;-40
2023/08/14 07:32:32;;;;;;;3.20;2.30;;;;;;;25.23;45.81;100094.46;107607;1254;60014;-41
2023/08/14 07:35:00;;;;;;;6.70;2.50;;;;;;;25.33;44.60;100094.48;107578;1254;72803;-40
2023/08/14 07:37:28;;;;;;;7.80;2.70;;;;;;;25.42;44.82;100097.87;107520;1254;67559;-41
2023/08/14 07:39:56;;;;;;;2.80;2.40;;;;;;;25.51;44.83;100096.96;107408;1254;72777;-40
2023/08/14 07:42:23;;;;;;;2.80;2.30;;;;;;;25.63;44.32;100096.98;107508;1254;59616;-41
2023/08/14 07:44:51;;;;;;;3.80;2.40;;;;;;;25.72;43.87;100097.23;107524;1257;59514;-39
2023/08/14 07:47:19;;;;;;;4.50;2.30;;;;;;;25.79;44.25;100101.85;107608;1256;73032;-40
2023/08/14 07:49:47;;;;;;;3.60;2.80;;;;;;;25.85;44.00;100103.71;107517;1254;67692;-40
2023/08/14 07:52:14;;;;;;;4.40;2.60;;;;;;;25.92;43.48;100105.16;107416;1254;72077;-40
2023/08/14 07:54:42;;;;;;;6.20;2.80;;;;;;;25.98;43.01;100102.91;107440;1254;60501;-40
2023/08/14 07:57:10;;;;;;;5.30;2.40;;;;;;;26.06;43.44;100101.46;107385;1255;59499;-40
2023/08/14 07:59:38;;;;;;;3.90;2.60;;;;;;;26.15;43.34;100100.68;107446;1254;73038;-40
2023/08/14 08:02:05;;;;;;;4.20;3.00;;;;;;;26.24;43.38;100104.05;107640;1257;66284;-40
2023/08/14 08:04:36;;;;;;;4.90;2.60;;;;;;;26.33;43.21;100102.39;107521;1256;72979;-40
2023/08/14 08:07:07;;;;;;;4.30;2.60;;;;;;;26.43;42.79;100101.73;107658;1257;60059;-40
2023/08/14 08:09:37;;;;;;;4.90;3.10;;;;;;;26.51;43.62;100093.52;107463;1253;60018;-40
2023/08/14 08:12:06;;;;;;;3.30;2.60;;;;;;;26.60;42.26;100096.05;107487;1257;73047;-40
2023/08/14 08:14:34;;;;;;;4.80;2.50;;;;;;;26.67;42.64;100098.05;107574;1254;66292;-40
2023/08/14 08:17:03;;;;;;;5.40;2.50;;;;;;;26.75;42.53;100099.02;107372;1259;72774;-40
2023/08/14 08:19:30;;;;;;;4.10;2.50;;;;;;;26.87;42.60;100100.27;107535;1258;59592;-40
2023/08/14 08:21:59;;;;;;;3.10;2.50;;;;;;;27.00;42.47;100098.73;107500;1253;60053;-39
2023/08/14 08:24:27;;;;;;;4.80;2.60;;;;;;;27.08;41.33;100099.38;107523;1252;73890;-40
2023/08/14 08:26:55;;;;;;;6.30;3.00;;;;;;;27.12;41.31;100097.48;107548;1257;67563;-40
2023/08/14 08:29:23;;;;;;;5.20;2.90;;;;;;;27.17;41.86;100097.03;107423;1255;72696;-44
2023/08/14 08:31:51;;;;;;;2.60;2.30;;;;;;;27.25;41.22;100096.98;107410;1254;60047;-41
2023/08/14 08:34:20;;;;;;;3.20;2.50;;;;;;;27.32;41.23;100091.26;107541;1254;60236;-40
2023/08/14 08:36:48;;;;;;;3.30;2.40;;;;;;;27.38;41.45;100095.13;107522;1254;73053;-40
2023/08/14 08:39:15;;;;;;;4.80;2.70;;;;;;;27.45;40.45;100094.24;107495;1257;66306;-40
2023/08/14 08:41:46;;;;;;;3.00;2.20;;;;;;;27.53;39.55;100095.54;107390;1254;72709;-40
2023/08/14 08:44:26;;;;;;;3.90;2.10;;;;;;;27.60;39.85;100095.58;107402;1257;59739;-38
2023/08/14 08:46:58;;;;;;;4.10;2.30;;;;;;;27.71;40.40;100095.63;107147;1254;60035;-39
2023/08/14 08:49:26;;;;;;;4.60;2.40;;;;;;;27.83;38.69;100095.23;107620;1259;73492;-39
2023/08/14 08:51:55;;;;;;;3.60;2.30;;;;;;;27.89;38.22;100092.38;107443;1257;67864;-39
2023/08/14 08:54:23;;;;;;;4.10;2.30;;;;;;;27.93;38.55;100091.14;107433;1254;71967;-39
2023/08/14 08:56:50;;;;;;;3.50;2.20;;;;;;;27.98;39.09;100094.53;107466;1254;61267;-39
2023/08/14 08:59:18;;;;;;;3.40;2.40;;;;;;;28.00;39.56;100090.85;107429;1253;60396;-39
2023/08/14 09:01:49;;;;;;;4.90;2.40;;;;;;;28.05;39.54;100091.36;107604;1253;73906;-41
2023/08/14 09:04:16;;;;;;;5.20;2.30;;;;;;;28.12;39.44;100088.09;107469;1255;66910;-39
2023/08/14 09:06:45;;;;;;;5.50;2.50;;;;;;;28.21;39.48;100082.17;107548;1256;72707;-40
2023/08/14 09:09:13;;;;;;;3.50;2.50;;;;;;;28.32;39.57;100085.85;107586;1253;59207;-40
2023/08/14 09:11:40;;;;;;;3.60;2.30;;;;;;;28.43;39.41;100082.66;107514;1252;60635;-38
2023/08/14 09:14:08;;;;;;;4.40;2.30;;;;;;;28.53;39.22;100081.02;107333;1254;73868;-39
2023/08/14 09:16:36;;;;;;;4.20;2.30;;;;;;;28.66;39.26;100083.97;107308;1256;67890;-39
2023/08/14 09:19:04;;;;;;;4.20;2.60;;;;;;;28.75;38.46;100081.02;107360;1254;72693;-39
2023/08/14 09:21:31;;;;;;;4.50;2.10;;;;;;;28.82;38.71;100085.26;107621;1254;60342;-39
2023/08/14 09:23:59;;;;;;;4.10;2.50;;;;;;;28.86;38.32;100080.44;107543;1254;60303;-39
2023/08/14 09:26:27;;;;;;;4.30;2.30;;;;;;;28.88;36.99;100082.77;107384;1257;73842;-39
2023/08/14 09:28:54;;;;;;;4.50;2.40;;;;;;;28.88;37.25;100079.23;107213;1259;67585;-39
2023/08/14 09:31:22;;;;;;;3.60;2.40;;;;;;;28.91;37.70;100075.69;107197;1254;73177;-39
2023/08/14 09:33:49;;;;;;;3.00;2.40;;;;;;;28.94;37.85;100076.44;107531;1252;60446;-39
2023/08/14 09:36:17;;;;;;;4.40;2.50;;;;;;;29.02;38.09;100076.39;107496;1253;60489;-39
2023/08/14 09:38:45;;;;;;;4.60;2.60;;;;;;;29.12;37.32;100071.93;107567;1254;74408;-39
2023/08/14 09:41:13;;;;;;;5.10;2.00;;;;;;;29.22;37.33;100069.64;107682;1257;66294;-39
2023/08/14 09:43:42;;;;;;;5.70;2.40;;;;;;;29.31;37.16;100072.49;107579;1254;72679;-39
2023/08/14 09:46:11;;;;;;;3.20;2.20;;;;;;;29.38;36.77;100069.61;107434;1253;60415;-41
2023/08/14 09:48:42;;;;;;;4.50;2.00;;;;;;;29.46;36.85;100072.48;107625;1254;59677;-40
2023/08/14 09:51:12;;;;;;;3.30;1.70;;;;;;;29.50;36.43;100070.60;107636;1254;72547;-40
2023/08/14 09:53:47;;;;;;;3.90;2.10;;;;;;;29.61;37.14;100071.42;107533;1256;66413;-40
2023/08/14 09:56:16;;;;;;;3.20;2.30;;;;;;;29.80;36.48;100065.83;107540;1254;71968;-40
2023/08/14 09:58:46;;;;;;;3.90;2.10;;;;;;;29.93;35.96;100072.30;107551;1254;60373;-41
2023/08/14 10:01:24;;;;;;;3.30;2.40;;;;;;;29.99;36.03;100073.02;107292;1258;60527;-40
2023/08/14 10:03:53;;;;;;;3.80;2.20;;;;;;;30.06;35.72;100071.06;107481;1258;72661;-41
2023/08/14 10:06:23;;;;;;;4.30;2.00;;;;;;;30.19;35.72;100067.94;107548;1260;67756;-41
2023/08/14 10:08:56;;;;;;;4.80;2.20;;;;;;;30.41;35.60;100067.73;107416;1254;72849;-40
2023/08/14 10:11:26;;;;;;;4.30;2.40;;;;;;;30.66;35.34;100064.42;107556;1254;60524;-40
2023/08/14 10:14:02;;;;;;;3.80;2.10;;;;;;;30.84;34.73;100063.48;107614;1254;60530;-40
2023/08/14 10:16:39;;;;;;;4.70;2.40;;;;;;;30.90;33.81;100060.17;107596;1254;74309;-41
2023/08/14 10:19:09;;;;;;;3.40;2.30;;;;;;;30.89;34.30;100064.23;107361;1254;65861;-41
2023/08/14 10:21:36;;;;;;;2.60;1.80;;;;;;;30.87;33.61;100067.31;107345;1258;71801;-40
2023/08/14 10:24:05;;;;;;;4.10;1.90;;;;;;;30.86;33.67;100063.46;107310;1254;60530;-41
2023/08/14 10:26:33;;;;;;;3.10;1.70;;;;;;;30.90;33.50;100062.80;107428;1253;60417;-41
2023/08/14 10:29:00;;;;;;;2.80;2.10;;;;;;;31.00;33.24;100061.17;107422;1254;72592;-41
2023/08/14 10:31:29;;;;;;;2.90;2.00;;;;;;;31.10;33.82;100057.86;107369;1254;67566;-40
2023/08/14 10:33:56;;;;;;;4.70;2.40;;;;;;;31.31;33.76;100059.65;107615;1254;72014;-39
2023/08/14 10:36:28;;;;;;;2.50;1.90;;;;;;;31.50;33.00;100058.79;107511;1257;60064;-40
2023/08/14 10:39:08;;;;;;;2.30;1.90;;;;;;;31.58;32.28;100056.23;107574;1254;59665;-39
2023/08/14 10:41:36;;;;;;;3.00;1.70;;;;;;;31.61;32.11;100061.72;107558;1257;73852;-40
2023/08/14 10:44:08;;;;;;;3.00;2.00;;;;;;;31.66;31.77;100058.34;107610;1254;67585;-40
2023/08/14 10:46:43;;;;;;;3.20;2.00;;;;;;;31.87;31.91;100054.59;107341;1255;72707;-40
2023/08/14 10:49:11;;;;;;;3.50;1.80;;;;;;;32.18;31.37;100056.23;107484;1253;60327;-40
2023/08/14 10:51:42;;;;;;;3.80;1.60;;;;;;;32.40;30.75;100056.80;107472;1254;60032;-40
2023/08/14 10:54:14;;;;;;;2.40;1.70;;;;;;;32.52;30.05;100058.06;107630;1254;73929;-40
2023/08/14 10:56:46;;;;;;;3.70;1.80;;;;;;;32.66;29.61;100053.90;107694;1254;68008;-40
2023/08/14 10:59:26;;;;;;;2.30;1.80;;;;;;;32.74;28.82;100056.64;107657;1254;72704;-40
2023/08/14 11:02:05;;;;;;;4.10;2.00;;;;;;;32.82;29.36;100051.73;107588;1254;60376;-40
2023/08/14 11:04:36;;;;;;;3.80;1.60;;;;;;;32.99;28.23;100048.88;107627;1254;60501;-40
2023/08/14 11:07:08;;;;;;;3.10;1.70;;;;;;;33.17;28.47;100042.65;107530;1254;74403;-40
2023/08/14 11:09:37;;;;;;;5.50;1.90;;;;;;;33.42;28.73;100041.99;107603;1254;67677;-40
2023/08/14 11:12:06;;;;;;;4.10;2.10;;;;;;;33.74;27.81;100037.94;107540;1254;72488;-40
2023/08/14 11:14:35;;;;;;;3.80;1.90;;;;;;;34.12;27.82;100033.19;107559;1254;60312;-40
2023/08/14 11:17:03;;;;;;;2.70;2.00;;;;;;;34.52;27.80;100031.90;108713;1254;60626;-41
2023/08/14 11:19:34;;;;;;;4.00;1.80;;;;;;;34.78;27.46;100026.65;107584;1257;72662;-40
2023/08/14 11:22:01;;;;;;;3.10;2.00;;;;;;;34.95;27.05;100030.61;107496;1254;67921;-40
2023/08/14 11:24:29;;;;;;;2.70;2.10;;;;;;;34.96;27.02;100027.19;107528;1253;73424;-41
2023/08/14 11:26:58;;;;;;;5.20;2.10;;;;;;;35.11;26.78;100028.73;107545;1254;60568;-41
2023/08/14 11:29:25;;;;;;;2.70;1.90;;;;;;;35.31;26.39;100021.11;107576;1252;60367;-41